sensor_id;sensor_type;location;lat;lon;timestamp;pressure;altitude;pressure_sealevel;temperature;humidity
12801;BME280;6464;42.494;27.470;2022-11-20T05:00:47;100862.56;;;19.47;100.00
12801;BME280;6464;42.494;27.470;2022-11-20T05:03:19;100728.19;;;18.75;100.00
12801;BME280;6464;42.494;27.470;2022-11-20T05:05:47;100833.00;;;19.33;100.00
12801;BME280;6464;42.494;27.470;2022-11-20T05:08:18;100816.53;;;19.24;100.00
12801;BME280;6464;42.494;27.470;2022-11-20T05:10:47;100745.81;;;18.80;100.00
12801;BME280;6464;42.494;27.470;2022-11-20T05:13:17;100797.53;;;18.96;100.00
12801;BME280;6464;42.494;27.470;2022-11-20T05:15:49;100836.63;;;19.32;100.00
12801;BME280;6464;42.494;27.470;2022-11-20T05:18:20;100874.44;;;19.59;100.00
12801;BME280;6464;42.494;27.470;2022-11-20T05:20:57;100848.81;;;19.37;100.00
12801;BME280;6464;42.494;27.470;2022-11-20T05:23:25;100832.06;;;19.34;100.00
12801;BME280;6464;42.494;27.470;2022-11-20T05:25:54;100790.56;;;19.09;100.00
12801;BME280;6464;42.494;27.470;2022-11-20T05:28:23;100851.56;;;19.36;100.00
12801;BME280;6464;42.494;27.470;2022-11-20T05:30:53;100762.03;;;18.77;100.00
12801;BME280;6464;42.494;27.470;2022-11-20T05:33:23;100795.47;;;19.01;100.00
12801;BME280;6464;42.494;27.470;2022-11-20T05:35:51;100872.50;;;19.45;100.00
12801;BME280;6464;42.494;27.470;2022-11-20T05:38:22;100825.88;;;19.16;100.00
12801;BME280;6464;42.494;27.470;2022-11-20T05:40:53;100807.47;;;19.10;100.00
12801;BME280;6464;42.494;27.470;2022-11-20T05:43:28;100810.72;;;18.99;100.00
12801;BME280;6464;42.494;27.470;2022-11-20T05:46:12;100792.03;;;18.82;100.00
12801;BME280;6464;42.494;27.470;2022-11-20T05:48:44;100851.75;;;19.15;100.00
12801;BME280;6464;42.494;27.470;2022-11-20T05:51:17;100795.91;;;19.09;100.00
12801;BME280;6464;42.494;27.470;2022-11-20T05:53:48;100821.88;;;19.24;100.00
12801;BME280;6464;42.494;27.470;2022-11-20T05:56:17;100719.00;;;18.64;100.00
12801;BME280;6464;42.494;27.470;2022-11-20T05:58:45;100801.41;;;19.23;100.00
12801;BME280;6464;42.494;27.470;2022-11-20T06:01:25;100720.03;;;18.79;100.00
12801;BME280;6464;42.494;27.470;2022-11-20T06:04:08;100784.31;;;19.10;100.00
12801;BME280;6464;42.494;27.470;2022-11-20T06:06:39;100826.88;;;19.31;100.00
12801;BME280;6464;42.494;27.470;2022-11-20T06:11:43;100781.00;;;19.05;100.00
12801;BME280;6464;42.494;27.470;2022-11-20T06:14:10;100745.50;;;18.86;100.00
12801;BME280;6464;42.494;27.470;2022-11-20T06:16:47;100824.66;;;19.39;100.00
12801;BME280;6464;42.494;27.470;2022-11-20T06:19:18;100781.44;;;19.13;100.00
12801;BME280;6464;42.494;27.470;2022-11-20T06:24:21;100765.22;;;19.00;100.00
12801;BME280;6464;42.494;27.470;2022-11-20T06:26:54;100805.56;;;19.29;100.00
12801;BME280;6464;42.494;27.470;2022-11-20T06:29:26;100843.59;;;19.51;100.00
12801;BME280;6464;42.494;27.470;2022-11-20T06:32:00;100836.16;;;19.41;100.00
12801;BME280;6464;42.494;27.470;2022-11-20T06:34:31;100808.94;;;19.33;100.00
12801;BME280;6464;42.494;27.470;2022-11-20T06:36:58;100860.16;;;19.75;100.00
12801;BME280;6464;42.494;27.470;2022-11-20T06:39:28;100823.38;;;19.63;100.00
12801;BME280;6464;42.494;27.470;2022-11-20T06:41:57;100883.09;;;19.97;100.00
12801;BME280;6464;42.494;27.470;2022-11-20T06:44:33;100895.44;;;20.15;100.00
12801;BME280;6464;42.494;27.470;2022-11-20T06:47:32;100806.84;;;19.55;100.00
12801;BME280;6464;42.494;27.470;2022-11-20T06:52:55;100916.53;;;20.37;100.00
12801;BME280;6464;42.494;27.470;2022-11-20T06:55:26;100818.41;;;19.73;100.00
12801;BME280;6464;42.494;27.470;2022-11-20T06:57:54;100916.44;;;20.39;100.00
12801;BME280;6464;42.494;27.470;2022-11-20T07:00:23;100912.91;;;20.38;100.00
12801;BME280;6464;42.494;27.470;2022-11-20T07:02:58;100912.22;;;20.35;100.00
12801;BME280;6464;42.494;27.470;2022-11-20T07:05:33;100939.38;;;20.76;100.00
12801;BME280;6464;42.494;27.470;2022-11-20T07:08:01;100887.50;;;20.29;100.00
12801;BME280;6464;42.494;27.470;2022-11-20T07:10:29;100880.34;;;20.14;100.00
12801;BME280;6464;42.494;27.470;2022-11-20T07:13:13;100945.19;;;20.52;100.00
12801;BME280;6464;42.494;27.470;2022-11-20T07:15:47;100862.19;;;20.03;100.00
12801;BME280;6464;42.494;27.470;2022-11-20T07:18:23;100871.25;;;20.01;100.00
12801;BME280;6464;42.494;27.470;2022-11-20T07:21:00;100929.38;;;20.48;100.00
12801;BME280;6464;42.494;27.470;2022-11-20T07:23:41;100926.31;;;20.22;100.00
12801;BME280;6464;42.494;27.470;2022-11-20T07:26:13;100814.16;;;19.69;100.00
12801;BME280;6464;42.494;27.470;2022-11-20T07:28:47;100809.06;;;19.64;100.00
12801;BME280;6464;42.494;27.470;2022-11-20T07:31:20;100870.22;;;20.03;100.00
12801;BME280;6464;42.494;27.470;2022-11-20T07:33:58;100941.09;;;20.45;100.00
12801;BME280;6464;42.494;27.470;2022-11-20T07:36:30;100838.66;;;19.77;100.00
12801;BME280;6464;42.494;27.470;2022-11-20T07:39:02;100879.56;;;20.12;100.00
12801;BME280;6464;42.494;27.470;2022-11-20T07:41:35;100955.53;;;20.43;100.00
12801;BME280;6464;42.494;27.470;2022-11-20T07:44:08;100881.44;;;20.10;100.00
12801;BME280;6464;42.494;27.470;2022-11-20T07:46:36;100823.50;;;19.93;100.00
12801;BME280;6464;42.494;27.470;2022-11-20T07:49:07;100918.88;;;20.43;100.00
12801;BME280;6464;42.494;27.470;2022-11-20T07:51:37;100926.78;;;20.62;100.00
12801;BME280;6464;42.494;27.470;2022-11-20T07:54:19;100879.47;;;20.29;100.00
12801;BME280;6464;42.494;27.470;2022-11-20T07:56:50;100918.22;;;20.56;100.00
12801;BME280;6464;42.494;27.470;2022-11-20T07:59:21;100817.34;;;19.91;100.00
12801;BME280;6464;42.494;27.470;2022-11-20T08:01:58;100954.66;;;20.74;100.00
12801;BME280;6464;42.494;27.470;2022-11-20T08:04:35;100968.97;;;20.74;100.00
12801;BME280;6464;42.494;27.470;2022-11-20T08:07:04;100973.53;;;20.72;100.00
12801;BME280;6464;42.494;27.470;2022-11-20T08:09:32;100957.53;;;20.71;100.00
12801;BME280;6464;42.494;27.470;2022-11-20T08:14:40;100849.66;;;20.20;100.00
12801;BME280;6464;42.494;27.470;2022-11-20T08:17:09;100976.09;;;21.05;100.00
12801;BME280;6464;42.494;27.470;2022-11-20T08:19:54;100905.03;;;20.35;100.00
12801;BME280;6464;42.494;27.470;2022-11-20T08:22:35;100879.91;;;20.38;100.00
12801;BME280;6464;42.494;27.470;2022-11-20T08:25:11;100889.94;;;20.18;100.00
12801;BME280;6464;42.494;27.470;2022-11-20T08:27:39;100960.03;;;20.74;100.00
12801;BME280;6464;42.494;27.470;2022-11-20T08:30:14;100905.47;;;20.43;100.00
12801;BME280;6464;42.494;27.470;2022-11-20T08:32:47;100907.22;;;20.28;100.00
12801;BME280;6464;42.494;27.470;2022-11-20T08:35:22;100948.56;;;20.72;100.00
12801;BME280;6464;42.494;27.470;2022-11-20T08:37:54;100945.09;;;20.54;100.00
12801;BME280;6464;42.494;27.470;2022-11-20T08:40:26;100885.94;;;20.25;100.00
12801;BME280;6464;42.494;27.470;2022-11-20T08:42:58;100927.91;;;20.58;100.00
12801;BME280;6464;42.494;27.470;2022-11-20T08:45:33;100885.78;;;20.28;100.00
12801;BME280;6464;42.494;27.470;2022-11-20T08:48:09;100952.97;;;20.89;100.00
12801;BME280;6464;42.494;27.470;2022-11-20T08:50:46;100954.06;;;20.69;100.00
12801;BME280;6464;42.494;27.470;2022-11-20T08:53:14;100843.44;;;20.19;100.00
12801;BME280;6464;42.494;27.470;2022-11-20T08:55:49;100879.56;;;20.28;100.00
12801;BME280;6464;42.494;27.470;2022-11-20T08:58:43;100917.25;;;20.72;100.00
12801;BME280;6464;42.494;27.470;2022-11-20T09:01:24;100869.34;;;20.35;100.00
12801;BME280;6464;42.494;27.470;2022-11-20T09:04:13;100975.84;;;21.10;100.00
12801;BME280;6464;42.494;27.470;2022-11-20T09:07:15;100894.78;;;20.59;100.00
12801;BME280;6464;42.494;27.470;2022-11-20T09:10:04;100914.72;;;20.69;100.00
12801;BME280;6464;42.494;27.470;2022-11-20T09:25:18;100927.59;;;20.78;100.00
12801;BME280;6464;42.494;27.470;2022-11-20T09:27:56;100953.88;;;20.88;100.00
12801;BME280;6464;42.494;27.470;2022-11-20T09:30:47;100874.66;;;20.52;100.00
12801;BME280;6464;42.494;27.470;2022-11-20T09:33:28;100958.91;;;20.94;100.00
12801;BME280;6464;42.494;27.470;2022-11-20T09:36:13;100925.38;;;20.71;100.00
12801;BME280;6464;42.494;27.470;2022-11-20T09:39:10;100960.50;;;21.12;100.00
12801;BME280;6464;42.494;27.470;2022-11-20T09:44:55;100911.53;;;20.78;100.00
12801;BME280;6464;42.494;27.470;2022-11-20T09:50:34;100940.06;;;20.95;100.00
12801;BME280;6464;42.494;27.470;2022-11-20T09:53:16;100891.09;;;20.92;100.00
12801;BME280;6464;42.494;27.470;2022-11-20T09:55:58;100806.25;;;20.45;100.00
12801;BME280;6464;42.494;27.470;2022-11-20T09:58:38;100872.22;;;21.09;100.00
12801;BME280;6464;42.494;27.470;2022-11-20T10:01:15;100846.69;;;20.72;100.00
12801;BME280;6464;42.494;27.470;2022-11-20T10:03:57;100792.28;;;20.40;100.00
12801;BME280;6464;42.494;27.470;2022-11-20T10:06:31;100807.25;;;20.74;100.00
12801;BME280;6464;42.494;27.470;2022-11-20T10:09:20;100870.84;;;21.46;100.00
12801;BME280;6464;42.494;27.470;2022-11-20T10:12:02;100933.13;;;21.96;100.00
12801;BME280;6464;42.494;27.470;2022-11-20T10:14:47;100864.25;;;21.22;100.00
12801;BME280;6464;42.494;27.470;2022-11-20T10:17:34;100919.81;;;21.36;100.00
12801;BME280;6464;42.494;27.470;2022-11-20T10:20:17;100944.31;;;21.74;100.00
12801;BME280;6464;42.494;27.470;2022-11-20T10:23:14;100886.00;;;21.17;100.00
12801;BME280;6464;42.494;27.470;2022-11-20T10:25:59;100834.84;;;21.06;100.00
12801;BME280;6464;42.494;27.470;2022-11-20T10:28:38;100802.84;;;20.89;100.00
12801;BME280;6464;42.494;27.470;2022-11-20T10:31:24;100881.09;;;21.40;100.00
12801;BME280;6464;42.494;27.470;2022-11-20T10:36:48;100915.75;;;21.73;100.00
12801;BME280;6464;42.494;27.470;2022-11-20T10:39:22;100820.31;;;21.24;100.00
12801;BME280;6464;42.494;27.470;2022-11-20T10:41:53;100905.66;;;21.48;100.00
12801;BME280;6464;42.494;27.470;2022-11-20T10:44:27;100897.06;;;21.71;100.00
12801;BME280;6464;42.494;27.470;2022-11-20T10:47:15;100912.56;;;21.52;100.00
12801;BME280;6464;42.494;27.470;2022-11-20T10:49:46;100819.84;;;20.88;100.00
12801;BME280;6464;42.494;27.470;2022-11-20T10:52:23;100832.44;;;21.01;100.00
12801;BME280;6464;42.494;27.470;2022-11-20T10:55:01;100798.63;;;20.69;100.00
12801;BME280;6464;42.494;27.470;2022-11-20T10:57:52;100786.25;;;20.52;100.00
12801;BME280;6464;42.494;27.470;2022-11-20T11:00:24;100817.97;;;20.90;100.00
12801;BME280;6464;42.494;27.470;2022-11-20T11:02:57;100831.75;;;20.98;100.00
12801;BME280;6464;42.494;27.470;2022-11-20T11:05:33;100858.28;;;21.02;100.00
12801;BME280;6464;42.494;27.470;2022-11-20T11:08:13;100755.81;;;20.53;100.00
12801;BME280;6464;42.494;27.470;2022-11-20T11:10:48;100768.25;;;20.54;100.00
12801;BME280;6464;42.494;27.470;2022-11-20T11:13:31;100751.16;;;20.41;100.00
12801;BME280;6464;42.494;27.470;2022-11-20T11:18:37;100798.75;;;20.67;100.00
12801;BME280;6464;42.494;27.470;2022-11-20T11:21:09;100892.09;;;21.05;100.00
12801;BME280;6464;42.494;27.470;2022-11-20T11:23:57;100852.22;;;20.85;100.00
12801;BME280;6464;42.494;27.470;2022-11-20T11:26:27;100884.28;;;21.16;100.00
12801;BME280;6464;42.494;27.470;2022-11-20T11:28:58;100754.19;;;20.35;100.00
12801;BME280;6464;42.494;27.470;2022-11-20T11:31:27;100912.34;;;21.11;100.00
12801;BME280;6464;42.494;27.470;2022-11-20T11:34:04;100877.91;;;21.03;100.00
12801;BME280;6464;42.494;27.470;2022-11-20T11:36:34;100797.31;;;20.46;100.00
12801;BME280;6464;42.494;27.470;2022-11-20T11:39:13;100794.88;;;20.41;100.00
12801;BME280;6464;42.494;27.470;2022-11-20T11:41:43;100763.78;;;20.39;100.00
12801;BME280;6464;42.494;27.470;2022-11-20T11:44:16;100894.31;;;21.13;100.00
12801;BME280;6464;42.494;27.470;2022-11-20T11:47:02;100771.69;;;20.26;100.00
12801;BME280;6464;42.494;27.470;2022-11-20T11:49:30;100889.53;;;21.03;100.00
12801;BME280;6464;42.494;27.470;2022-11-20T11:52:30;100885.09;;;21.02;100.00
12801;BME280;6464;42.494;27.470;2022-11-20T11:58:04;100839.47;;;20.58;100.00
12801;BME280;6464;42.494;27.470;2022-11-20T12:00:56;100919.03;;;21.03;100.00
12801;BME280;6464;42.494;27.470;2022-11-20T12:03:36;100785.72;;;20.29;100.00
12801;BME280;6464;42.494;27.470;2022-11-20T12:06:21;100835.94;;;20.58;100.00
12801;BME280;6464;42.494;27.470;2022-11-20T12:09:05;100782.09;;;20.31;100.00
12801;BME280;6464;42.494;27.470;2022-11-20T12:12:11;100913.19;;;21.11;100.00
12801;BME280;6464;42.494;27.470;2022-11-20T12:14:47;100809.22;;;20.56;100.00
12801;BME280;6464;42.494;27.470;2022-11-20T12:17:18;100766.03;;;20.31;100.00
12801;BME280;6464;42.494;27.470;2022-11-20T12:19:46;100894.53;;;21.10;100.00
12801;BME280;6464;42.494;27.470;2022-11-20T12:22:25;100857.38;;;20.88;100.00
12801;BME280;6464;42.494;27.470;2022-11-20T12:25:01;100915.41;;;21.35;100.00
12801;BME280;6464;42.494;27.470;2022-11-20T12:28:14;100846.28;;;20.79;100.00
12801;BME280;6464;42.494;27.470;2022-11-20T12:30:58;100868.56;;;21.10;100.00
12801;BME280;6464;42.494;27.470;2022-11-20T12:33:49;100864.91;;;21.11;100.00
12801;BME280;6464;42.494;27.470;2022-11-20T12:36:36;100844.75;;;20.90;100.00
12801;BME280;6464;42.494;27.470;2022-11-20T12:39:34;100785.88;;;20.58;100.00
12801;BME280;6464;42.494;27.470;2022-11-20T12:48:13;100808.28;;;20.57;100.00
12801;BME280;6464;42.494;27.470;2022-11-20T12:51:14;100885.25;;;21.15;100.00
12801;BME280;6464;42.494;27.470;2022-11-20T12:53:55;100844.78;;;20.74;100.00
12801;BME280;6464;42.494;27.470;2022-11-20T12:56:43;100828.03;;;20.70;100.00
12801;BME280;6464;42.494;27.470;2022-11-20T12:59:32;100936.59;;;21.39;100.00
12801;BME280;6464;42.494;27.470;2022-11-20T13:02:21;100807.69;;;20.52;100.00
12801;BME280;6464;42.494;27.470;2022-11-20T13:05:13;100913.72;;;21.18;100.00
12801;BME280;6464;42.494;27.470;2022-11-20T13:07:43;100815.56;;;20.69;100.00
12801;BME280;6464;42.494;27.470;2022-11-20T13:10:18;100850.56;;;20.82;100.00
12801;BME280;6464;42.494;27.470;2022-11-20T13:12:51;100883.97;;;21.07;100.00
12801;BME280;6464;42.494;27.470;2022-11-20T13:15:42;100843.00;;;20.74;100.00
12801;BME280;6464;42.494;27.470;2022-11-20T13:18:15;100890.38;;;21.04;100.00
12801;BME280;6464;42.494;27.470;2022-11-20T13:20:55;100885.78;;;21.06;100.00
12801;BME280;6464;42.494;27.470;2022-11-20T13:23:37;100857.59;;;20.85;100.00
12801;BME280;6464;42.494;27.470;2022-11-20T13:26:17;100825.16;;;20.73;100.00
12801;BME280;6464;42.494;27.470;2022-11-20T13:29:04;100953.28;;;21.44;100.00
12801;BME280;6464;42.494;27.470;2022-11-20T13:31:49;100868.63;;;20.78;100.00
12801;BME280;6464;42.494;27.470;2022-11-20T13:34:27;100898.97;;;21.25;100.00
12801;BME280;6464;42.494;27.470;2022-11-20T13:36:58;100963.19;;;21.58;100.00
12801;BME280;6464;42.494;27.470;2022-11-20T13:39:31;100850.66;;;20.81;100.00
12801;BME280;6464;42.494;27.470;2022-11-20T13:42:02;100960.09;;;21.50;100.00
12801;BME280;6464;42.494;27.470;2022-11-20T13:44:34;100881.38;;;21.05;100.00
12801;BME280;6464;42.494;27.470;2022-11-20T13:47:24;100905.69;;;21.32;100.00
12801;BME280;6464;42.494;27.470;2022-11-20T13:50:09;100970.81;;;21.50;100.00
12801;BME280;6464;42.494;27.470;2022-11-20T13:53:00;100804.22;;;20.50;100.00
12801;BME280;6464;42.494;27.470;2022-11-20T13:55:42;100953.72;;;21.37;100.00
12801;BME280;6464;42.494;27.470;2022-11-20T13:58:27;100838.28;;;20.48;100.00
12801;BME280;6464;42.494;27.470;2022-11-20T14:01:16;100889.75;;;20.85;100.00
12801;BME280;6464;42.494;27.470;2022-11-20T14:03:58;100970.78;;;21.36;100.00
12801;BME280;6464;42.494;27.470;2022-11-20T14:06:29;100864.72;;;20.54;100.00
12801;BME280;6464;42.494;27.470;2022-11-20T14:08:58;100965.16;;;21.24;100.00
12801;BME280;6464;42.494;27.470;2022-11-20T14:11:27;100941.56;;;21.15;100.00
12801;BME280;6464;42.494;27.470;2022-11-20T14:14:13;100829.78;;;20.40;100.00
12801;BME280;6464;42.494;27.470;2022-11-20T14:17:05;100918.44;;;20.83;100.00
12801;BME280;6464;42.494;27.470;2022-11-20T14:19:38;100986.78;;;21.21;100.00
12801;BME280;6464;42.494;27.470;2022-11-20T14:22:21;100894.25;;;20.68;100.00
12801;BME280;6464;42.494;27.470;2022-11-20T14:25:00;100936.50;;;20.95;100.00
12801;BME280;6464;42.494;27.470;2022-11-20T14:27:29;100955.94;;;21.14;100.00
12801;BME280;6464;42.494;27.470;2022-11-20T14:30:11;100891.03;;;20.77;100.00
12801;BME280;6464;42.494;27.470;2022-11-20T14:32:43;100960.06;;;21.20;100.00
12801;BME280;6464;42.494;27.470;2022-11-20T14:35:34;100838.59;;;20.42;100.00
12801;BME280;6464;42.494;27.470;2022-11-20T14:38:12;100889.16;;;20.64;100.00
12801;BME280;6464;42.494;27.470;2022-11-20T14:40:43;100897.19;;;20.79;100.00
12801;BME280;6464;42.494;27.470;2022-11-20T14:43:19;100907.72;;;20.83;100.00
12801;BME280;6464;42.494;27.470;2022-11-20T14:45:55;100947.13;;;20.96;100.00
12801;BME280;6464;42.494;27.470;2022-11-20T14:48:30;100822.03;;;20.19;100.00
12801;BME280;6464;42.494;27.470;2022-11-20T14:51:01;100971.50;;;21.08;100.00
12801;BME280;6464;42.494;27.470;2022-11-20T14:53:33;100903.25;;;20.67;100.00
12801;BME280;6464;42.494;27.470;2022-11-20T14:56:01;100851.03;;;20.43;100.00
12801;BME280;6464;42.494;27.470;2022-11-20T14:58:31;100897.59;;;20.88;100.00
12801;BME280;6464;42.494;27.470;2022-11-20T15:01:01;100875.69;;;20.65;100.00
12801;BME280;6464;42.494;27.470;2022-11-20T15:03:35;100901.41;;;20.84;100.00
12801;BME280;6464;42.494;27.470;2022-11-20T15:06:06;100987.47;;;21.25;100.00
12801;BME280;6464;42.494;27.470;2022-11-20T15:08:51;100926.53;;;20.97;100.00
12801;BME280;6464;42.494;27.470;2022-11-20T15:13:56;100872.09;;;20.50;100.00
12801;BME280;6464;42.494;27.470;2022-11-20T15:16:40;100895.56;;;20.61;100.00
12801;BME280;6464;42.494;27.470;2022-11-20T15:19:16;100926.22;;;20.87;100.00
12801;BME280;6464;42.494;27.470;2022-11-20T15:21:58;101014.56;;;21.36;100.00
12801;BME280;6464;42.494;27.470;2022-11-20T15:27:18;100896.84;;;20.54;100.00
12801;BME280;6464;42.494;27.470;2022-11-20T15:29:48;100907.16;;;20.62;100.00
12801;BME280;6464;42.494;27.470;2022-11-20T15:32:35;100977.56;;;21.11;100.00
12801;BME280;6464;42.494;27.470;2022-11-20T15:35:19;101023.66;;;21.34;100.00
12801;BME280;6464;42.494;27.470;2022-11-20T15:38:05;100971.59;;;21.06;100.00
12801;BME280;6464;42.494;27.470;2022-11-20T15:40:57;100904.13;;;20.52;100.00
12801;BME280;6464;42.494;27.470;2022-11-20T15:43:50;100936.88;;;20.73;100.00
12801;BME280;6464;42.494;27.470;2022-11-20T15:46:25;100955.81;;;20.86;100.00
12801;BME280;6464;42.494;27.470;2022-11-20T15:48:55;100979.81;;;21.03;100.00
12801;BME280;6464;42.494;27.470;2022-11-20T15:51:27;100914.34;;;20.61;100.00
12801;BME280;6464;42.494;27.470;2022-11-20T15:54:03;101019.16;;;21.18;100.00
12801;BME280;6464;42.494;27.470;2022-11-20T15:56:37;100900.22;;;20.42;100.00
12801;BME280;6464;42.494;27.470;2022-11-20T15:59:12;100937.31;;;20.65;100.00
12801;BME280;6464;42.494;27.470;2022-11-20T16:01:42;100947.31;;;20.77;100.00
12801;BME280;6464;42.494;27.470;2022-11-20T16:04:24;100980.00;;;21.00;100.00
12801;BME280;6464;42.494;27.470;2022-11-20T16:07:08;101018.47;;;21.30;100.00
12801;BME280;6464;42.494;27.470;2022-11-20T16:09:57;101028.25;;;21.32;100.00
12801;BME280;6464;42.494;27.470;2022-11-20T16:12:46;101038.53;;;21.23;100.00
12801;BME280;6464;42.494;27.470;2022-11-20T16:15:33;100986.66;;;20.93;100.00
12801;BME280;6464;42.494;27.470;2022-11-20T16:18:27;101023.34;;;21.08;100.00
12801;BME280;6464;42.494;27.470;2022-11-20T16:21:02;101017.28;;;21.04;100.00
12801;BME280;6464;42.494;27.470;2022-11-20T16:23:29;101036.78;;;21.22;100.00
12801;BME280;6464;42.494;27.470;2022-11-20T16:26:10;100904.47;;;20.46;100.00
12801;BME280;6464;42.494;27.470;2022-11-20T16:28:40;101046.75;;;21.20;100.00
12801;BME280;6464;42.494;27.470;2022-11-20T16:31:19;101006.81;;;21.00;100.00
12801;BME280;6464;42.494;27.470;2022-11-20T16:34:03;100948.03;;;20.65;100.00
12801;BME280;6464;42.494;27.470;2022-11-20T16:36:35;100999.28;;;20.91;100.00
12801;BME280;6464;42.494;27.470;2022-11-20T16:39:05;101017.53;;;21.00;100.00
12801;BME280;6464;42.494;27.470;2022-11-20T16:41:36;101015.63;;;21.02;100.00
12801;BME280;6464;42.494;27.470;2022-11-20T16:44:24;100960.13;;;20.72;100.00
12801;BME280;6464;42.494;27.470;2022-11-20T16:47:09;101000.91;;;20.93;100.00
12801;BME280;6464;42.494;27.470;2022-11-20T16:52:16;100970.00;;;20.72;100.00
12801;BME280;6464;42.494;27.470;2022-11-20T16:55:09;100965.59;;;20.55;100.00
12801;BME280;6464;42.494;27.470;2022-11-20T16:57:53;100905.66;;;20.24;100.00
12801;BME280;6464;42.494;27.470;2022-11-20T17:00:36;100906.94;;;20.33;100.00
12801;BME280;6464;42.494;27.470;2022-11-20T17:05:51;100876.09;;;20.10;100.00
12801;BME280;6464;42.494;27.470;2022-11-20T17:08:27;100948.38;;;20.59;100.00
12801;BME280;6464;42.494;27.470;2022-11-20T17:11:05;100973.53;;;20.72;100.00
12801;BME280;6464;42.494;27.470;2022-11-20T17:13:42;100971.22;;;20.66;100.00
12801;BME280;6464;42.494;27.470;2022-11-20T17:16:18;100947.25;;;20.63;100.00
12801;BME280;6464;42.494;27.470;2022-11-20T17:18:53;100849.16;;;20.13;100.00
12801;BME280;6464;42.494;27.470;2022-11-20T17:21:35;100984.94;;;20.92;100.00
12801;BME280;6464;42.494;27.470;2022-11-20T17:29:17;100864.44;;;20.27;100.00
12801;BME280;6464;42.494;27.470;2022-11-20T17:31:50;100822.81;;;19.90;100.00
12801;BME280;6464;42.494;27.470;2022-11-20T17:34:21;100932.13;;;20.62;100.00
12801;BME280;6464;42.494;27.470;2022-11-20T17:37:13;100878.16;;;20.21;100.00
12801;BME280;6464;42.494;27.470;2022-11-20T17:39:49;100896.69;;;20.41;100.00
12801;BME280;6464;42.494;27.470;2022-11-20T17:42:21;100874.22;;;20.28;100.00
12801;BME280;6464;42.494;27.470;2022-11-20T17:45:04;100821.09;;;19.89;100.00
12801;BME280;6464;42.494;27.470;2022-11-20T17:47:35;100969.31;;;20.84;100.00
12801;BME280;6464;42.494;27.470;2022-11-20T17:50:08;100874.03;;;20.15;100.00
12801;BME280;6464;42.494;27.470;2022-11-20T17:52:48;100842.41;;;19.90;100.00
12801;BME280;6464;42.494;27.470;2022-11-20T17:55:30;100860.88;;;20.11;100.00
12801;BME280;6464;42.494;27.470;2022-11-20T17:58:14;100904.97;;;20.37;100.00
12801;BME280;6464;42.494;27.470;2022-11-20T18:04:01;100947.19;;;20.65;100.00
12801;BME280;6464;42.494;27.470;2022-11-20T18:06:30;100946.47;;;20.61;100.00
12801;BME280;6464;42.494;27.470;2022-11-20T18:08:59;100840.28;;;19.97;100.00
12801;BME280;6464;42.494;27.470;2022-11-20T18:11:31;100924.69;;;20.36;100.00
12801;BME280;6464;42.494;27.470;2022-11-20T18:14:07;100817.19;;;19.79;100.00
12801;BME280;6464;42.494;27.470;2022-11-20T18:16:59;100791.91;;;19.51;100.00
12801;BME280;6464;42.494;27.470;2022-11-20T18:19:29;100828.41;;;19.69;100.00
12801;BME280;6464;42.494;27.470;2022-11-20T18:21:58;100813.31;;;19.68;100.00
12801;BME280;6464;42.494;27.470;2022-11-20T18:24:36;100756.31;;;19.33;100.00
12801;BME280;6464;42.494;27.470;2022-11-20T18:27:21;100819.78;;;19.80;100.00
12801;BME280;6464;42.494;27.470;2022-11-20T18:29:51;100823.75;;;19.89;100.00
12801;BME280;6464;42.494;27.470;2022-11-20T18:32:23;100770.84;;;19.45;100.00
12801;BME280;6464;42.494;27.470;2022-11-20T18:34:54;100747.44;;;19.33;100.00
12801;BME280;6464;42.494;27.470;2022-11-20T18:37:32;100760.16;;;19.45;100.00
12801;BME280;6464;42.494;27.470;2022-11-20T18:40:12;100796.81;;;19.76;100.00
12801;BME280;6464;42.494;27.470;2022-11-20T18:42:41;100884.16;;;20.26;100.00
12801;BME280;6464;42.494;27.470;2022-11-20T18:45:30;100824.72;;;19.88;100.00
12801;BME280;6464;42.494;27.470;2022-11-20T18:47:59;100759.81;;;19.51;100.00
12801;BME280;6464;42.494;27.470;2022-11-20T18:50:29;100752.75;;;19.50;100.00
12801;BME280;6464;42.494;27.470;2022-11-20T18:52:57;100775.69;;;19.54;100.00
12801;BME280;6464;42.494;27.470;2022-11-20T18:55:27;100877.66;;;20.14;100.00
12801;BME280;6464;42.494;27.470;2022-11-20T18:57:56;100822.34;;;19.82;100.00
12801;BME280;6464;42.494;27.470;2022-11-20T19:00:24;100851.72;;;19.83;100.00
12801;BME280;6464;42.494;27.470;2022-11-20T19:02:53;100891.56;;;20.21;100.00
12801;BME280;6464;42.494;27.470;2022-11-20T19:05:24;100764.69;;;19.43;100.00
12801;BME280;6464;42.494;27.470;2022-11-20T19:07:51;100893.97;;;20.25;100.00
12801;BME280;6464;42.494;27.470;2022-11-20T19:10:21;100894.06;;;20.24;100.00
12801;BME280;6464;42.494;27.470;2022-11-20T19:12:52;100866.34;;;20.09;100.00
12801;BME280;6464;42.494;27.470;2022-11-20T19:15:20;100906.44;;;20.26;100.00
12801;BME280;6464;42.494;27.470;2022-11-20T19:17:50;100834.00;;;19.81;100.00
12801;BME280;6464;42.494;27.470;2022-11-20T19:20:20;100783.38;;;19.44;100.00
12801;BME280;6464;42.494;27.470;2022-11-20T19:23:12;100843.69;;;19.83;100.00
12801;BME280;6464;42.494;27.470;2022-11-20T19:25:42;100831.56;;;19.60;100.00
12801;BME280;6464;42.494;27.470;2022-11-20T19:28:15;100838.00;;;19.56;100.00
12801;BME280;6464;42.494;27.470;2022-11-20T19:31:02;100852.75;;;19.81;100.00
12801;BME280;6464;42.494;27.470;2022-11-20T19:33:31;100776.31;;;19.26;100.00